sensor_id;sensor_type;location;lat;lon;timestamp;pressure;altitude;pressure_sealevel;temperature;humidity
17209;BME280;8720;48.488;9.202;2023-07-22T00:01:55;96995.00;;;19.84;46.05
17209;BME280;8720;48.488;9.202;2023-07-22T00:04:22;96997.75;;;19.82;46.44
17209;BME280;8720;48.488;9.202;2023-07-22T00:06:50;96994.44;;;19.79;46.21
17209;BME280;8720;48.488;9.202;2023-07-22T00:09:19;96995.28;;;19.79;46.11
17209;BME280;8720;48.488;9.202;2023-07-22T00:11:46;96993.75;;;19.75;46.32
17209;BME280;8720;48.488;9.202;2023-07-22T00:14:13;96999.16;;;19.74;46.06
17209;BME280;8720;48.488;9.202;2023-07-22T00:16:40;97004.66;;;19.71;46.08
17209;BME280;8720;48.488;9.202;2023-07-22T00:19:08;96996.38;;;19.61;46.43
17209;BME280;8720;48.488;9.202;2023-07-22T00:21:35;97005.78;;;19.67;46.15
17209;BME280;8720;48.488;9.202;2023-07-22T00:24:03;97001.53;;;19.64;46.28
17209;BME280;8720;48.488;9.202;2023-07-22T00:26:32;96999.91;;;19.62;46.41
17209;BME280;8720;48.488;9.202;2023-07-22T00:28:59;97004.44;;;19.60;46.63
17209;BME280;8720;48.488;9.202;2023-07-22T00:31:26;97007.28;;;19.57;46.75
17209;BME280;8720;48.488;9.202;2023-07-22T00:33:54;96999.41;;;19.55;46.74
17209;BME280;8720;48.488;9.202;2023-07-22T00:36:21;96998.66;;;19.53;46.77
17209;BME280;8720;48.488;9.202;2023-07-22T00:38:48;97001.38;;;19.52;46.87
17209;BME280;8720;48.488;9.202;2023-07-22T00:41:15;96999.78;;;19.49;46.71
17209;BME280;8720;48.488;9.202;2023-07-22T00:43:44;96995.41;;;19.48;46.93
17209;BME280;8720;48.488;9.202;2023-07-22T00:46:11;96999.09;;;19.46;46.79
17209;BME280;8720;48.488;9.202;2023-07-22T00:48:39;96992.19;;;19.43;46.69
17209;BME280;8720;48.488;9.202;2023-07-22T00:51:07;96995.78;;;19.42;46.77
17209;BME280;8720;48.488;9.202;2023-07-22T00:53:34;97000.31;;;19.40;46.89
17209;BME280;8720;48.488;9.202;2023-07-22T00:56:02;96992.56;;;19.37;46.77
17209;BME280;8720;48.488;9.202;2023-07-22T00:58:29;96990.75;;;19.38;46.85
17209;BME280;8720;48.488;9.202;2023-07-22T01:00:58;96988.09;;;19.38;47.20
17209;BME280;8720;48.488;9.202;2023-07-22T01:03:26;96989.13;;;19.35;46.98
17209;BME280;8720;48.488;9.202;2023-07-22T01:05:54;96986.66;;;19.32;47.16
17209;BME280;8720;48.488;9.202;2023-07-22T01:08:23;96999.16;;;19.30;47.20
17209;BME280;8720;48.488;9.202;2023-07-22T01:10:50;96986.03;;;19.27;47.36
17209;BME280;8720;48.488;9.202;2023-07-22T01:13:17;96985.28;;;19.25;47.35
17209;BME280;8720;48.488;9.202;2023-07-22T01:15:46;96976.56;;;19.23;47.36
17209;BME280;8720;48.488;9.202;2023-07-22T01:18:17;96979.41;;;19.20;47.69
17209;BME280;8720;48.488;9.202;2023-07-22T01:20:46;96978.63;;;19.18;47.51
17209;BME280;8720;48.488;9.202;2023-07-22T01:23:16;96983.16;;;19.16;47.74
17209;BME280;8720;48.488;9.202;2023-07-22T01:25:43;96979.75;;;19.14;47.79
17209;BME280;8720;48.488;9.202;2023-07-22T01:28:11;96980.78;;;19.12;47.73
17209;BME280;8720;48.488;9.202;2023-07-22T01:30:38;96974.81;;;19.08;47.84
17209;BME280;8720;48.488;9.202;2023-07-22T01:33:05;96976.69;;;19.06;47.88
17209;BME280;8720;48.488;9.202;2023-07-22T01:35:35;96968.84;;;19.04;47.45
17209;BME280;8720;48.488;9.202;2023-07-22T01:38:02;96970.81;;;19.01;47.84
17209;BME280;8720;48.488;9.202;2023-07-22T01:40:31;96974.47;;;18.98;47.77
17209;BME280;8720;48.488;9.202;2023-07-22T01:42:58;96964.06;;;18.95;47.66
17209;BME280;8720;48.488;9.202;2023-07-22T01:45:25;96970.41;;;18.93;48.01
17209;BME280;8720;48.488;9.202;2023-07-22T01:47:53;96964.41;;;18.89;48.02
17209;BME280;8720;48.488;9.202;2023-07-22T01:50:20;96965.34;;;18.88;47.87
17209;BME280;8720;48.488;9.202;2023-07-22T01:52:48;96969.00;;;18.86;47.98
17209;BME280;8720;48.488;9.202;2023-07-22T01:55:16;96964.78;;;18.83;48.02
17209;BME280;8720;48.488;9.202;2023-07-22T01:57:45;96969.41;;;18.80;48.08
17209;BME280;8720;48.488;9.202;2023-07-22T02:05:29;96966.66;;;18.66;48.38
17209;BME280;8720;48.488;9.202;2023-07-22T02:07:56;96980.69;;;18.68;48.57
17209;BME280;8720;48.488;9.202;2023-07-22T02:10:24;96977.28;;;18.66;48.78
17209;BME280;8720;48.488;9.202;2023-07-22T02:12:52;96980.78;;;18.66;48.95
17209;BME280;8720;48.488;9.202;2023-07-22T02:15:19;96982.72;;;18.63;48.84
17209;BME280;8720;48.488;9.202;2023-07-22T02:17:48;96986.31;;;18.62;48.89
17209;BME280;8720;48.488;9.202;2023-07-22T02:20:16;96983.78;;;18.60;48.96
17209;BME280;8720;48.488;9.202;2023-07-22T02:22:43;96994.47;;;18.59;49.05
17209;BME280;8720;48.488;9.202;2023-07-22T02:25:10;96992.84;;;18.56;49.09
17209;BME280;8720;48.488;9.202;2023-07-22T02:27:38;96995.91;;;18.49;49.48
17209;BME280;8720;48.488;9.202;2023-07-22T02:30:09;96995.91;;;18.49;49.33
17209;BME280;8720;48.488;9.202;2023-07-22T02:32:38;96994.28;;;18.46;49.54
17209;BME280;8720;48.488;9.202;2023-07-22T02:35:07;96994.38;;;18.45;49.41
17209;BME280;8720;48.488;9.202;2023-07-22T02:37:37;96991.81;;;18.43;49.44
17209;BME280;8720;48.488;9.202;2023-07-22T02:40:06;96988.34;;;18.41;49.30
17209;BME280;8720;48.488;9.202;2023-07-22T02:42:35;96993.81;;;18.38;49.33
17209;BME280;8720;48.488;9.202;2023-07-22T02:45:04;96997.50;;;18.36;49.71
17209;BME280;8720;48.488;9.202;2023-07-22T02:47:35;96997.56;;;18.34;49.53
17209;BME280;8720;48.488;9.202;2023-07-22T02:50:02;97000.31;;;18.33;49.40
17209;BME280;8720;48.488;9.202;2023-07-22T02:52:31;97003.03;;;18.31;49.47
17209;BME280;8720;48.488;9.202;2023-07-22T02:55:07;96994.31;;;18.29;49.55
17209;BME280;8720;48.488;9.202;2023-07-22T02:57:35;96999.72;;;18.28;49.68
17209;BME280;8720;48.488;9.202;2023-07-22T03:00:04;97001.50;;;18.27;49.62
17209;BME280;8720;48.488;9.202;2023-07-22T03:02:35;97001.50;;;18.27;49.82
17209;BME280;8720;48.488;9.202;2023-07-22T03:05:05;96985.69;;;18.26;49.83
17209;BME280;8720;48.488;9.202;2023-07-22T03:07:33;96995.44;;;18.25;49.68
17209;BME280;8720;48.488;9.202;2023-07-22T03:10:01;96982.38;;;18.22;49.72
17209;BME280;8720;48.488;9.202;2023-07-22T03:12:28;96985.25;;;18.17;49.93
17209;BME280;8720;48.488;9.202;2023-07-22T03:14:55;96987.91;;;18.17;49.93
17209;BME280;8720;48.488;9.202;2023-07-22T03:17:23;96992.44;;;18.15;49.80
17209;BME280;8720;48.488;9.202;2023-07-22T03:19:51;96996.84;;;18.15;49.87
17209;BME280;8720;48.488;9.202;2023-07-22T03:22:18;96989.00;;;18.13;50.07
17209;BME280;8720;48.488;9.202;2023-07-22T03:24:46;96982.94;;;18.11;49.81
17209;BME280;8720;48.488;9.202;2023-07-22T03:27:14;96984.81;;;18.09;49.99
17209;BME280;8720;48.488;9.202;2023-07-22T03:29:43;96991.88;;;18.09;50.25
17209;BME280;8720;48.488;9.202;2023-07-22T03:32:10;96985.75;;;18.08;50.00
17209;BME280;8720;48.488;9.202;2023-07-22T03:34:37;96983.13;;;18.08;50.07
17209;BME280;8720;48.488;9.202;2023-07-22T03:37:06;96983.13;;;18.08;50.02
17209;BME280;8720;48.488;9.202;2023-07-22T03:39:35;96981.38;;;18.07;49.98
17209;BME280;8720;48.488;9.202;2023-07-22T03:42:03;96976.09;;;18.07;50.10
17209;BME280;8720;48.488;9.202;2023-07-22T03:44:31;96982.34;;;18.06;50.00
17209;BME280;8720;48.488;9.202;2023-07-22T03:46:59;96982.50;;;18.03;49.95
17209;BME280;8720;48.488;9.202;2023-07-22T03:49:27;96977.19;;;18.03;50.04
17209;BME280;8720;48.488;9.202;2023-07-22T03:51:54;96976.34;;;18.03;50.21
17209;BME280;8720;48.488;9.202;2023-07-22T03:54:23;96972.84;;;18.02;50.14
17209;BME280;8720;48.488;9.202;2023-07-22T03:56:50;96972.84;;;18.02;50.07
17209;BME280;8720;48.488;9.202;2023-07-22T03:59:17;96975.50;;;18.02;49.94
17209;BME280;8720;48.488;9.202;2023-07-22T04:01:45;96973.69;;;18.03;50.02
17209;BME280;8720;48.488;9.202;2023-07-22T04:04:12;96966.59;;;18.03;50.21
17209;BME280;8720;48.488;9.202;2023-07-22T04:06:40;96977.09;;;18.05;50.15
17209;BME280;8720;48.488;9.202;2023-07-22T04:09:07;96978.84;;;18.06;50.21
17209;BME280;8720;48.488;9.202;2023-07-22T04:11:36;96978.75;;;18.07;50.30
17209;BME280;8720;48.488;9.202;2023-07-22T04:14:03;96976.97;;;18.08;50.31
17209;BME280;8720;48.488;9.202;2023-07-22T04:16:30;96971.56;;;18.09;50.54
17209;BME280;8720;48.488;9.202;2023-07-22T04:18:58;96980.19;;;18.13;50.40
17209;BME280;8720;48.488;9.202;2023-07-22T04:21:25;96975.75;;;18.13;50.29
17209;BME280;8720;48.488;9.202;2023-07-22T04:23:52;96972.16;;;18.14;50.49
17209;BME280;8720;48.488;9.202;2023-07-22T04:26:20;96972.94;;;18.16;50.63
17209;BME280;8720;48.488;9.202;2023-07-22T04:28:49;96972.78;;;18.20;50.57
17209;BME280;8720;48.488;9.202;2023-07-22T04:31:16;96970.81;;;18.23;50.32
17209;BME280;8720;48.488;9.202;2023-07-22T04:33:44;96980.31;;;18.27;50.39
17209;BME280;8720;48.488;9.202;2023-07-22T04:36:12;96975.69;;;18.31;50.69
17209;BME280;8720;48.488;9.202;2023-07-22T04:38:39;96973.66;;;18.36;50.60
17209;BME280;8720;48.488;9.202;2023-07-22T04:41:06;96980.34;;;18.43;50.70
17209;BME280;8720;48.488;9.202;2023-07-22T04:43:33;96983.44;;;18.51;50.40
17209;BME280;8720;48.488;9.202;2023-07-22T04:46:02;96985.13;;;18.67;50.42
17209;BME280;8720;48.488;9.202;2023-07-22T04:48:30;96976.47;;;18.95;50.31
17209;BME280;8720;48.488;9.202;2023-07-22T04:50:57;96976.91;;;19.33;50.45
17209;BME280;8720;48.488;9.202;2023-07-22T04:53:25;96978.69;;;19.76;50.24
17209;BME280;8720;48.488;9.202;2023-07-22T04:55:52;96973.13;;;20.23;49.72
17209;BME280;8720;48.488;9.202;2023-07-22T04:58:21;96978.53;;;20.76;49.26
17209;BME280;8720;48.488;9.202;2023-07-22T05:00:48;96986.22;;;21.34;48.91
17209;BME280;8720;48.488;9.202;2023-07-22T05:03:17;96983.13;;;21.92;47.98
17209;BME280;8720;48.488;9.202;2023-07-22T05:05:45;96982.41;;;22.51;47.63
17209;BME280;8720;48.488;9.202;2023-07-22T05:08:12;96984.16;;;23.12;46.81
17209;BME280;8720;48.488;9.202;2023-07-22T05:10:39;96977.59;;;23.74;45.85
17209;BME280;8720;48.488;9.202;2023-07-22T05:13:07;96991.44;;;24.36;44.94
17209;BME280;8720;48.488;9.202;2023-07-22T05:15:34;96993.97;;;24.93;43.96
17209;BME280;8720;48.488;9.202;2023-07-22T05:18:01;96994.81;;;25.47;43.18
17209;BME280;8720;48.488;9.202;2023-07-22T05:20:30;96989.38;;;25.99;42.42
17209;BME280;8720;48.488;9.202;2023-07-22T05:22:58;96992.22;;;26.49;41.08
17209;BME280;8720;48.488;9.202;2023-07-22T05:25:25;96999.06;;;26.92;40.71
17209;BME280;8720;48.488;9.202;2023-07-22T05:27:53;97010.59;;;27.33;39.89
17209;BME280;8720;48.488;9.202;2023-07-22T05:30:20;97002.13;;;27.75;39.07
17209;BME280;8720;48.488;9.202;2023-07-22T05:32:47;97000.28;;;28.14;38.53
17209;BME280;8720;48.488;9.202;2023-07-22T05:35:14;97000.06;;;28.54;38.09
17209;BME280;8720;48.488;9.202;2023-07-22T05:37:43;97002.09;;;28.97;37.53
17209;BME280;8720;48.488;9.202;2023-07-22T05:40:11;96998.22;;;29.36;36.63
17209;BME280;8720;48.488;9.202;2023-07-22T05:42:38;97001.91;;;29.70;35.52
17209;BME280;8720;48.488;9.202;2023-07-22T05:45:08;97008.78;;;30.00;35.37
17209;BME280;8720;48.488;9.202;2023-07-22T05:47:39;97010.25;;;30.29;35.02
17209;BME280;8720;48.488;9.202;2023-07-22T05:50:07;97014.13;;;30.61;34.13
17209;BME280;8720;48.488;9.202;2023-07-22T05:52:35;97010.94;;;30.91;34.01
17209;BME280;8720;48.488;9.202;2023-07-22T05:55:04;97008.84;;;31.18;33.45
17209;BME280;8720;48.488;9.202;2023-07-22T05:57:32;97011.66;;;31.43;33.16
17209;BME280;8720;48.488;9.202;2023-07-22T05:59:59;97014.94;;;31.70;32.82
17209;BME280;8720;48.488;9.202;2023-07-22T06:02:26;97018.19;;;31.98;32.08
17209;BME280;8720;48.488;9.202;2023-07-22T06:04:54;97009.88;;;32.24;31.78
17209;BME280;8720;48.488;9.202;2023-07-22T06:07:21;97014.28;;;32.49;31.24
17209;BME280;8720;48.488;9.202;2023-07-22T06:09:48;97020.66;;;32.72;30.89
17209;BME280;8720;48.488;9.202;2023-07-22T06:12:17;97018.75;;;32.88;30.33
17209;BME280;8720;48.488;9.202;2023-07-22T06:14:44;97025.81;;;33.05;30.17
17209;BME280;8720;48.488;9.202;2023-07-22T06:17:11;97018.13;;;33.25;29.67
17209;BME280;8720;48.488;9.202;2023-07-22T06:19:39;97025.50;;;33.47;29.65
17209;BME280;8720;48.488;9.202;2023-07-22T06:22:06;97027.56;;;33.68;29.06
17209;BME280;8720;48.488;9.202;2023-07-22T06:24:33;97029.81;;;33.87;28.79
17209;BME280;8720;48.488;9.202;2023-07-22T06:27:00;97026.97;;;34.11;28.75
17209;BME280;8720;48.488;9.202;2023-07-22T06:29:29;97034.88;;;34.35;28.30
17209;BME280;8720;48.488;9.202;2023-07-22T06:31:56;97030.66;;;34.55;27.99
17209;BME280;8720;48.488;9.202;2023-07-22T06:34:23;97031.97;;;34.74;27.82
17209;BME280;8720;48.488;9.202;2023-07-22T06:36:50;97032.47;;;34.92;27.46
17209;BME280;8720;48.488;9.202;2023-07-22T06:39:18;97027.91;;;35.07;27.19
17209;BME280;8720;48.488;9.202;2023-07-22T06:41:45;97035.66;;;35.10;26.82
17209;BME280;8720;48.488;9.202;2023-07-22T06:44:13;97023.38;;;35.14;26.81
17209;BME280;8720;48.488;9.202;2023-07-22T06:46:41;97032.00;;;35.32;26.65
17209;BME280;8720;48.488;9.202;2023-07-22T06:49:10;97039.31;;;35.46;26.58
17209;BME280;8720;48.488;9.202;2023-07-22T06:51:37;97037.44;;;35.61;26.18
17209;BME280;8720;48.488;9.202;2023-07-22T06:54:04;97036.25;;;35.71;26.01
17209;BME280;8720;48.488;9.202;2023-07-22T06:56:31;97030.50;;;35.80;25.69
17209;BME280;8720;48.488;9.202;2023-07-22T06:58:59;97038.00;;;35.93;25.40
17209;BME280;8720;48.488;9.202;2023-07-22T07:01:26;97025.09;;;36.01;25.45
17209;BME280;8720;48.488;9.202;2023-07-22T07:03:55;97028.13;;;36.13;25.21
17209;BME280;8720;48.488;9.202;2023-07-22T07:06:22;97030.16;;;36.25;24.74
17209;BME280;8720;48.488;9.202;2023-07-22T07:08:49;97029.41;;;36.38;24.73
17209;BME280;8720;48.488;9.202;2023-07-22T07:11:16;97031.63;;;36.49;24.52
17209;BME280;8720;48.488;9.202;2023-07-22T07:13:44;97029.84;;;36.63;24.87
17209;BME280;8720;48.488;9.202;2023-07-22T07:16:22;97027.81;;;36.71;24.53
17209;BME280;8720;48.488;9.202;2023-07-22T07:18:50;97025.75;;;36.73;24.27
17209;BME280;8720;48.488;9.202;2023-07-22T07:21:19;97024.31;;;36.77;24.19
17209;BME280;8720;48.488;9.202;2023-07-22T07:23:47;97028.59;;;36.86;24.09
17209;BME280;8720;48.488;9.202;2023-07-22T07:26:15;97032.84;;;36.95;24.01
17209;BME280;8720;48.488;9.202;2023-07-22T07:28:43;97029.75;;;37.05;23.80
17209;BME280;8720;48.488;9.202;2023-07-22T07:31:10;97040.94;;;37.16;23.66
17209;BME280;8720;48.488;9.202;2023-07-22T07:33:37;97030.91;;;37.23;23.28
17209;BME280;8720;48.488;9.202;2023-07-22T07:36:05;97026.72;;;37.27;23.16
17209;BME280;8720;48.488;9.202;2023-07-22T07:38:34;97024.66;;;37.29;23.19
17209;BME280;8720;48.488;9.202;2023-07-22T07:41:03;97024.25;;;37.32;22.92
17209;BME280;8720;48.488;9.202;2023-07-22T07:43:34;97028.28;;;37.37;22.79
17209;BME280;8720;48.488;9.202;2023-07-22T07:46:20;97031.22;;;37.42;23.14
17209;BME280;8720;48.488;9.202;2023-07-22T07:48:49;97023.66;;;37.44;22.61
17209;BME280;8720;48.488;9.202;2023-07-22T07:51:18;97021.34;;;37.41;21.94
17209;BME280;8720;48.488;9.202;2023-07-22T07:53:48;97023.66;;;37.44;22.19
17209;BME280;8720;48.488;9.202;2023-07-22T07:56:17;97027.88;;;37.46;22.28
17209;BME280;8720;48.488;9.202;2023-07-22T07:58:46;97022.38;;;37.40;21.93
17209;BME280;8720;48.488;9.202;2023-07-22T08:01:14;97028.03;;;37.31;21.65
17209;BME280;8720;48.488;9.202;2023-07-22T08:03:43;97022.91;;;37.22;21.61
17209;BME280;8720;48.488;9.202;2023-07-22T08:06:12;97022.91;;;37.22;21.73
17209;BME280;8720;48.488;9.202;2023-07-22T08:08:40;97027.09;;;37.18;21.77
17209;BME280;8720;48.488;9.202;2023-07-22T08:11:12;97021.59;;;37.11;21.79
17209;BME280;8720;48.488;9.202;2023-07-22T08:13:42;97023.28;;;37.12;21.73
17209;BME280;8720;48.488;9.202;2023-07-22T08:16:11;97020.31;;;37.07;21.42
17209;BME280;8720;48.488;9.202;2023-07-22T08:18:39;97029.16;;;37.09;21.33
17209;BME280;8720;48.488;9.202;2023-07-22T08:21:07;97026.63;;;37.08;21.77
17209;BME280;8720;48.488;9.202;2023-07-22T08:23:35;97026.22;;;37.11;21.44
17209;BME280;8720;48.488;9.202;2023-07-22T08:26:03;97023.09;;;37.14;21.01
17209;BME280;8720;48.488;9.202;2023-07-22T08:28:33;97022.47;;;37.18;21.13
17209;BME280;8720;48.488;9.202;2023-07-22T08:31:00;97014.91;;;37.14;21.06
17209;BME280;8720;48.488;9.202;2023-07-22T08:33:28;97020.53;;;37.12;21.07
17209;BME280;8720;48.488;9.202;2023-07-22T08:35:55;97021.38;;;37.06;21.00
17209;BME280;8720;48.488;9.202;2023-07-22T08:38:23;97020.09;;;37.02;21.05
17209;BME280;8720;48.488;9.202;2023-07-22T08:40:51;97018.59;;;37.00;20.80
17209;BME280;8720;48.488;9.202;2023-07-22T08:43:21;97016.06;;;36.98;20.63
17209;BME280;8720;48.488;9.202;2023-07-22T08:45:52;97009.34;;;36.94;20.64
17209;BME280;8720;48.488;9.202;2023-07-22T08:48:25;97015.28;;;36.77;20.69
17209;BME280;8720;48.488;9.202;2023-07-22T08:50:59;97018.50;;;36.59;20.79
17209;BME280;8720;48.488;9.202;2023-07-22T08:53:30;97015.28;;;36.49;20.75
17209;BME280;8720;48.488;9.202;2023-07-22T08:56:00;97012.69;;;36.41;20.82
17209;BME280;8720;48.488;9.202;2023-07-22T08:58:28;97012.34;;;36.29;20.60
17209;BME280;8720;48.488;9.202;2023-07-22T09:00:59;97013.75;;;36.19;20.49
17209;BME280;8720;48.488;9.202;2023-07-22T09:03:26;97017.66;;;36.10;20.77
17209;BME280;8720;48.488;9.202;2023-07-22T09:05:54;97001.78;;;35.99;20.75
17209;BME280;8720;48.488;9.202;2023-07-22T09:08:21;97005.41;;;35.85;20.82
17209;BME280;8720;48.488;9.202;2023-07-22T09:10:49;97006.06;;;35.66;20.99
17209;BME280;8720;48.488;9.202;2023-07-22T09:13:18;97003.44;;;35.43;21.15
17209;BME280;8720;48.488;9.202;2023-07-22T09:15:47;96991.59;;;35.15;21.33
17209;BME280;8720;48.488;9.202;2023-07-22T09:18:16;97003.50;;;34.99;21.35
17209;BME280;8720;48.488;9.202;2023-07-22T09:20:43;96997.41;;;34.83;21.13
17209;BME280;8720;48.488;9.202;2023-07-22T09:23:12;96989.22;;;34.68;21.33
17209;BME280;8720;48.488;9.202;2023-07-22T09:25:41;96981.31;;;34.44;21.13
17209;BME280;8720;48.488;9.202;2023-07-22T09:28:09;96994.31;;;34.34;21.26
17209;BME280;8720;48.488;9.202;2023-07-22T09:30:39;96991.66;;;34.11;21.80
17209;BME280;8720;48.488;9.202;2023-07-22T09:33:19;96996.69;;;33.91;21.47
17209;BME280;8720;48.488;9.202;2023-07-22T09:35:49;96990.91;;;33.72;21.93
17209;BME280;8720;48.488;9.202;2023-07-22T09:38:23;96990.19;;;33.55;22.26
17209;BME280;8720;48.488;9.202;2023-07-22T09:40:52;96993.13;;;33.38;22.15
17209;BME280;8720;48.488;9.202;2023-07-22T09:43:19;96986.78;;;33.23;22.29
17209;BME280;8720;48.488;9.202;2023-07-22T09:45:48;96984.25;;;33.13;22.21
17209;BME280;8720;48.488;9.202;2023-07-22T09:48:15;96983.28;;;33.06;22.60
17209;BME280;8720;48.488;9.202;2023-07-22T09:50:43;96982.31;;;32.99;22.25
17209;BME280;8720;48.488;9.202;2023-07-22T09:53:15;96968.94;;;32.89;22.58
17209;BME280;8720;48.488;9.202;2023-07-22T09:55:43;96968.59;;;32.84;22.71
17209;BME280;8720;48.488;9.202;2023-07-22T09:58:11;96974.22;;;32.83;22.78
17209;BME280;8720;48.488;9.202;2023-07-22T10:00:47;96981.66;;;32.81;22.60
17209;BME280;8720;48.488;9.202;2023-07-22T10:03:16;96978.28;;;32.79;22.72
17209;BME280;8720;48.488;9.202;2023-07-22T10:05:48;96975.94;;;32.76;23.00
17209;BME280;8720;48.488;9.202;2023-07-22T10:08:19;96981.03;;;32.71;22.78
17209;BME280;8720;48.488;9.202;2023-07-22T10:10:53;96975.66;;;32.63;22.89
17209;BME280;8720;48.488;9.202;2023-07-22T10:13:22;96978.72;;;32.52;23.35
17209;BME280;8720;48.488;9.202;2023-07-22T10:15:51;96977.38;;;32.40;23.50
17209;BME280;8720;48.488;9.202;2023-07-22T10:18:21;96975.34;;;32.34;23.33
17209;BME280;8720;48.488;9.202;2023-07-22T10:20:50;96975.69;;;32.31;23.70
17209;BME280;8720;48.488;9.202;2023-07-22T10:23:21;96969.25;;;32.32;23.49
17209;BME280;8720;48.488;9.202;2023-07-22T10:25:53;96978.38;;;32.31;23.79
17209;BME280;8720;48.488;9.202;2023-07-22T10:28:21;96969.59;;;32.29;23.67
17209;BME280;8720;48.488;9.202;2023-07-22T10:30:50;96968.91;;;32.27;23.66
17209;BME280;8720;48.488;9.202;2023-07-22T10:33:18;96962.66;;;32.26;23.87
17209;BME280;8720;48.488;9.202;2023-07-22T10:36:03;96955.38;;;32.18;23.98
17209;BME280;8720;48.488;9.202;2023-07-22T10:38:34;96953.88;;;32.24;24.10
17209;BME280;8720;48.488;9.202;2023-07-22T10:41:11;96957.44;;;32.16;24.33
17209;BME280;8720;48.488;9.202;2023-07-22T10:43:40;96963.84;;;32.24;24.36
17209;BME280;8720;48.488;9.202;2023-07-22T10:46:10;96957.94;;;32.28;23.94
17209;BME280;8720;48.488;9.202;2023-07-22T10:48:41;96954.19;;;32.37;24.16
17209;BME280;8720;48.488;9.202;2023-07-22T10:51:11;96955.53;;;32.41;23.97
17209;BME280;8720;48.488;9.202;2023-07-22T10:53:44;96946.34;;;32.42;23.60
17209;BME280;8720;48.488;9.202;2023-07-22T10:56:15;96944.69;;;32.41;23.65
17209;BME280;8720;48.488;9.202;2023-07-22T10:59:00;96942.47;;;32.37;24.13
17209;BME280;8720;48.488;9.202;2023-07-22T11:01:37;96937.09;;;32.29;24.06
17209;BME280;8720;48.488;9.202;2023-07-22T11:04:14;96936.78;;;32.24;23.89
17209;BME280;8720;48.488;9.202;2023-07-22T11:06:55;96932.53;;;32.21;23.80
17209;BME280;8720;48.488;9.202;2023-07-22T11:09:50;96922.06;;;32.18;23.51
17209;BME280;8720;48.488;9.202;2023-07-22T11:12:18;96913.41;;;32.22;23.97
17209;BME280;8720;48.488;9.202;2023-07-22T11:14:49;96913.25;;;32.24;23.85
17209;BME280;8720;48.488;9.202;2023-07-22T11:17:18;96902.75;;;32.21;23.70
17209;BME280;8720;48.488;9.202;2023-07-22T11:19:45;96910.38;;;32.17;23.88
17209;BME280;8720;48.488;9.202;2023-07-22T11:22:15;96914.63;;;32.12;23.81
17209;BME280;8720;48.488;9.202;2023-07-22T11:24:43;96914.81;;;32.10;23.76
17209;BME280;8720;48.488;9.202;2023-07-22T11:27:12;96918.88;;;32.06;24.10
17209;BME280;8720;48.488;9.202;2023-07-22T11:29:40;96912.91;;;32.19;23.74
17209;BME280;8720;48.488;9.202;2023-07-22T11:32:15;96908.72;;;32.08;23.73
17209;BME280;8720;48.488;9.202;2023-07-22T11:34:44;96907.88;;;32.00;24.14
17209;BME280;8720;48.488;9.202;2023-07-22T11:37:13;96894.19;;;31.93;23.64
17209;BME280;8720;48.488;9.202;2023-07-22T11:39:43;96906.34;;;31.89;24.04
17209;BME280;8720;48.488;9.202;2023-07-22T11:42:12;96897.53;;;31.87;23.64
17209;BME280;8720;48.488;9.202;2023-07-22T11:44:40;96885.69;;;31.88;24.09
17209;BME280;8720;48.488;9.202;2023-07-22T11:47:08;96887.75;;;31.94;24.02
17209;BME280;8720;48.488;9.202;2023-07-22T11:49:37;96882.16;;;32.04;24.19
17209;BME280;8720;48.488;9.202;2023-07-22T11:52:07;96882.47;;;32.09;24.22
17209;BME280;8720;48.488;9.202;2023-07-22T11:54:37;96882.13;;;32.12;23.77
17209;BME280;8720;48.488;9.202;2023-07-22T11:57:14;96876.53;;;32.13;24.24
17209;BME280;8720;48.488;9.202;2023-07-22T11:59:46;96880.09;;;32.14;23.60
17209;BME280;8720;48.488;9.202;2023-07-22T12:02:14;96878.25;;;32.14;23.81
17209;BME280;8720;48.488;9.202;2023-07-22T12:04:43;96875.53;;;32.14;23.57
17209;BME280;8720;48.488;9.202;2023-07-22T12:07:23;96875.53;;;32.14;23.87
17209;BME280;8720;48.488;9.202;2023-07-22T12:09:53;96873.13;;;32.19;24.02
17209;BME280;8720;48.488;9.202;2023-07-22T12:12:31;96872.44;;;32.26;23.91
17209;BME280;8720;48.488;9.202;2023-07-22T12:15:03;96856.50;;;32.31;23.06
17209;BME280;8720;48.488;9.202;2023-07-22T12:17:48;96855.50;;;32.32;23.08
17209;BME280;8720;48.488;9.202;2023-07-22T12:20:16;96860.44;;;32.28;22.85
17209;BME280;8720;48.488;9.202;2023-07-22T12:22:44;96870.75;;;32.25;23.12
17209;BME280;8720;48.488;9.202;2023-07-22T12:25:12;96862.63;;;32.25;23.33
17209;BME280;8720;48.488;9.202;2023-07-22T12:27:40;96867.22;;;32.24;23.12
17209;BME280;8720;48.488;9.202;2023-07-22T12:30:08;96861.28;;;32.20;23.57
17209;BME280;8720;48.488;9.202;2023-07-22T12:32:36;96856.22;;;32.17;23.32
17209;BME280;8720;48.488;9.202;2023-07-22T12:35:04;96867.41;;;32.14;23.30
17209;BME280;8720;48.488;9.202;2023-07-22T12:37:31;96871.13;;;32.13;23.65
17209;BME280;8720;48.488;9.202;2023-07-22T12:39:59;96858.44;;;32.14;23.65
17209;BME280;8720;48.488;9.202;2023-07-22T12:42:26;96868.59;;;32.12;23.43
17209;BME280;8720;48.488;9.202;2023-07-22T12:44:55;96862.69;;;32.08;23.68
17209;BME280;8720;48.488;9.202;2023-07-22T12:47:22;96859.31;;;32.06;23.37
17209;BME280;8720;48.488;9.202;2023-07-22T12:49:49;96863.50;;;32.09;23.52
17209;BME280;8720;48.488;9.202;2023-07-22T12:52:17;96856.06;;;32.11;23.48
17209;BME280;8720;48.488;9.202;2023-07-22T12:54:44;96858.75;;;32.11;23.37
17209;BME280;8720;48.488;9.202;2023-07-22T12:57:11;96858.94;;;32.09;23.54
17209;BME280;8720;48.488;9.202;2023-07-22T12:59:38;96847.47;;;31.99;23.37
17209;BME280;8720;48.488;9.202;2023-07-22T13:02:08;96853.88;;;32.06;23.36
17209;BME280;8720;48.488;9.202;2023-07-22T13:04:35;96843.88;;;32.07;23.63
17209;BME280;8720;48.488;9.202;2023-07-22T13:07:02;96848.66;;;32.05;23.31
17209;BME280;8720;48.488;9.202;2023-07-22T13:09:30;96847.63;;;32.06;23.92
17209;BME280;8720;48.488;9.202;2023-07-22T13:11:57;96840.84;;;32.02;23.56
17209;BME280;8720;48.488;9.202;2023-07-22T13:14:25;96845.09;;;32.04;23.64
17209;BME280;8720;48.488;9.202;2023-07-22T13:16:52;96836.47;;;32.01;23.69
17209;BME280;8720;48.488;9.202;2023-07-22T13:19:20;96827.00;;;31.97;23.51
17209;BME280;8720;48.488;9.202;2023-07-22T13:21:48;96835.63;;;31.92;24.17
17209;BME280;8720;48.488;9.202;2023-07-22T13:24:15;96835.63;;;31.92;24.16